sensor_id;sensor_type;location;lat;lon;timestamp;pressure;altitude;pressure_sealevel;temperature;humidity
44934;BME280;30667;43.614;1.442;2024-01-16T00:01:37;99367.84;;;11.16;100.00
44934;BME280;30667;43.614;1.442;2024-01-16T00:04:02;99363.75;;;11.19;100.00
44934;BME280;30667;43.614;1.442;2024-01-16T00:06:28;99354.41;;;11.11;100.00
44934;BME280;30667;43.614;1.442;2024-01-16T00:08:53;99352.78;;;11.10;100.00
44934;BME280;30667;43.614;1.442;2024-01-16T00:11:19;99353.63;;;11.11;100.00
44934;BME280;30667;43.614;1.442;2024-01-16T00:13:44;99351.59;;;11.16;100.00
44934;BME280;30667;43.614;1.442;2024-01-16T00:16:10;99349.69;;;11.17;100.00
44934;BME280;30667;43.614;1.442;2024-01-16T00:18:35;99352.63;;;11.20;100.00
44934;BME280;30667;43.614;1.442;2024-01-16T00:21:01;99346.69;;;11.18;100.00
44934;BME280;30667;43.614;1.442;2024-01-16T00:23:28;99342.88;;;11.19;100.00
44934;BME280;30667;43.614;1.442;2024-01-16T00:25:53;99343.09;;;11.23;100.00
44934;BME280;30667;43.614;1.442;2024-01-16T00:28:19;99342.28;;;11.22;100.00
44934;BME280;30667;43.614;1.442;2024-01-16T00:30:45;99340.78;;;11.16;100.00
44934;BME280;30667;43.614;1.442;2024-01-16T00:33:10;99350.50;;;11.17;100.00
44934;BME280;30667;43.614;1.442;2024-01-16T00:35:37;99343.19;;;11.18;100.00
44934;BME280;30667;43.614;1.442;2024-01-16T00:38:03;99341.78;;;11.20;100.00
44934;BME280;30667;43.614;1.442;2024-01-16T00:40:28;99341.69;;;11.25;100.00
44934;BME280;30667;43.614;1.442;2024-01-16T00:42:54;99343.03;;;11.28;100.00
44934;BME280;30667;43.614;1.442;2024-01-16T00:45:19;99354.34;;;11.30;100.00
44934;BME280;30667;43.614;1.442;2024-01-16T00:47:45;99352.44;;;11.31;100.00
44934;BME280;30667;43.614;1.442;2024-01-16T00:50:10;99347.81;;;11.31;100.00
44934;BME280;30667;43.614;1.442;2024-01-16T00:52:35;99338.78;;;11.36;100.00
44934;BME280;30667;43.614;1.442;2024-01-16T00:55:01;99345.31;;;11.35;100.00
44934;BME280;30667;43.614;1.442;2024-01-16T00:57:26;99343.13;;;11.37;100.00
44934;BME280;30667;43.614;1.442;2024-01-16T00:59:52;99343.00;;;11.42;100.00
44934;BME280;30667;43.614;1.442;2024-01-16T01:02:17;99345.72;;;11.42;100.00
44934;BME280;30667;43.614;1.442;2024-01-16T01:04:43;99335.41;;;11.44;100.00
44934;BME280;30667;43.614;1.442;2024-01-16T01:07:08;99338.91;;;11.44;100.00
44934;BME280;30667;43.614;1.442;2024-01-16T01:09:33;99333.50;;;11.44;100.00
44934;BME280;30667;43.614;1.442;2024-01-16T01:11:59;99325.06;;;11.46;100.00
44934;BME280;30667;43.614;1.442;2024-01-16T01:14:24;99323.16;;;11.47;100.00
44934;BME280;30667;43.614;1.442;2024-01-16T01:16:51;99330.97;;;11.48;100.00
44934;BME280;30667;43.614;1.442;2024-01-16T01:19:17;99333.19;;;11.46;100.00
44934;BME280;30667;43.614;1.442;2024-01-16T01:21:43;99334.50;;;11.49;100.00
44934;BME280;30667;43.614;1.442;2024-01-16T01:24:08;99338.81;;;11.50;100.00
44934;BME280;30667;43.614;1.442;2024-01-16T01:26:34;99333.41;;;11.50;100.00
44934;BME280;30667;43.614;1.442;2024-01-16T01:29:00;99329.28;;;11.52;100.00
44934;BME280;30667;43.614;1.442;2024-01-16T01:31:26;99333.28;;;11.55;100.00
44934;BME280;30667;43.614;1.442;2024-01-16T01:33:51;99337.91;;;11.54;100.00
44934;BME280;30667;43.614;1.442;2024-01-16T01:36:16;99340.63;;;11.54;100.00
44934;BME280;30667;43.614;1.442;2024-01-16T01:38:42;99346.03;;;11.54;100.00
44934;BME280;30667;43.614;1.442;2024-01-16T01:41:07;99345.44;;;11.57;100.00
44934;BME280;30667;43.614;1.442;2024-01-16T01:43:33;99337.63;;;11.56;100.00
44934;BME280;30667;43.614;1.442;2024-01-16T01:46:09;99331.41;;;11.55;100.00
44934;BME280;30667;43.614;1.442;2024-01-16T01:48:40;99323.78;;;11.57;100.00
44934;BME280;30667;43.614;1.442;2024-01-16T01:51:06;99322.16;;;11.56;100.00
44934;BME280;30667;43.614;1.442;2024-01-16T01:53:33;99324.88;;;11.56;100.00
44934;BME280;30667;43.614;1.442;2024-01-16T01:56:03;99325.69;;;11.57;100.00
44934;BME280;30667;43.614;1.442;2024-01-16T01:58:32;99331.91;;;11.57;100.00
44934;BME280;30667;43.614;1.442;2024-01-16T02:00:57;99325.16;;;11.55;100.00
44934;BME280;30667;43.614;1.442;2024-01-16T02:03:27;99315.16;;;11.55;100.00
44934;BME280;30667;43.614;1.442;2024-01-16T02:05:53;99317.84;;;11.55;100.00
44934;BME280;30667;43.614;1.442;2024-01-16T02:08:18;99312.63;;;11.59;100.00
44934;BME280;30667;43.614;1.442;2024-01-16T02:24:12;99301.78;;;11.59;100.00
44934;BME280;30667;43.614;1.442;2024-01-16T02:26:38;99300.38;;;11.61;100.00
44934;BME280;30667;43.614;1.442;2024-01-16T02:29:04;99295.78;;;11.62;100.00
44934;BME280;30667;43.614;1.442;2024-01-16T02:31:33;99292.25;;;11.61;100.00
44934;BME280;30667;43.614;1.442;2024-01-16T02:33:59;99300.91;;;11.63;100.00
44934;BME280;30667;43.614;1.442;2024-01-16T02:36:25;99292.75;;;11.63;100.00
44934;BME280;30667;43.614;1.442;2024-01-16T02:52:18;99302.19;;;11.66;100.00
44934;BME280;30667;43.614;1.442;2024-01-16T02:54:43;99304.09;;;11.66;100.00
44934;BME280;30667;43.614;1.442;2024-01-16T02:57:09;99305.72;;;11.67;100.00
44934;BME280;30667;43.614;1.442;2024-01-16T02:59:35;99304.09;;;11.66;100.00
44934;BME280;30667;43.614;1.442;2024-01-16T03:02:00;99303.31;;;11.65;100.00
44934;BME280;30667;43.614;1.442;2024-01-16T03:04:26;99298.38;;;11.67;100.00
44934;BME280;30667;43.614;1.442;2024-01-16T03:06:51;99295.97;;;11.66;100.00
44934;BME280;30667;43.614;1.442;2024-01-16T03:09:17;99292.25;;;11.61;100.00
44934;BME280;30667;43.614;1.442;2024-01-16T03:11:43;99290.84;;;11.64;100.00
44934;BME280;30667;43.614;1.442;2024-01-16T03:14:08;99288.13;;;11.64;100.00
44934;BME280;30667;43.614;1.442;2024-01-16T03:16:34;99289.34;;;11.58;100.00
44934;BME280;30667;43.614;1.442;2024-01-16T03:19:00;99288.56;;;11.57;100.00
44934;BME280;30667;43.614;1.442;2024-01-16T03:21:25;99277.72;;;11.57;100.00
44934;BME280;30667;43.614;1.442;2024-01-16T03:23:51;99287.75;;;11.57;100.00
44934;BME280;30667;43.614;1.442;2024-01-16T03:26:16;99297.69;;;11.48;100.00
44934;BME280;30667;43.614;1.442;2024-01-16T03:28:42;99290.34;;;11.48;100.00
44934;BME280;30667;43.614;1.442;2024-01-16T03:31:07;99289.25;;;11.49;100.00
44934;BME280;30667;43.614;1.442;2024-01-16T03:33:33;99289.25;;;11.49;100.00
44934;BME280;30667;43.614;1.442;2024-01-16T03:36:00;99296.56;;;11.49;100.00
44934;BME280;30667;43.614;1.442;2024-01-16T03:38:25;99298.19;;;11.50;100.00
44934;BME280;30667;43.614;1.442;2024-01-16T03:40:51;99295.47;;;11.50;100.00
44934;BME280;30667;43.614;1.442;2024-01-16T03:43:17;99294.38;;;11.51;100.00
44934;BME280;30667;43.614;1.442;2024-01-16T03:45:42;99293.84;;;11.49;100.00
44934;BME280;30667;43.614;1.442;2024-01-16T03:48:07;99291.97;;;11.49;100.00
44934;BME280;30667;43.614;1.442;2024-01-16T03:50:33;99297.38;;;11.49;100.00
44934;BME280;30667;43.614;1.442;2024-01-16T03:52:59;99299.38;;;11.43;100.00
44934;BME280;30667;43.614;1.442;2024-01-16T03:55:24;99303.22;;;11.42;100.00
44934;BME280;30667;43.614;1.442;2024-01-16T03:57:50;99299.38;;;11.43;100.00
44934;BME280;30667;43.614;1.442;2024-01-16T04:00:16;99294.16;;;11.47;100.00
44934;BME280;30667;43.614;1.442;2024-01-16T04:02:41;99297.69;;;11.48;100.00
44934;BME280;30667;43.614;1.442;2024-01-16T04:05:07;99295.38;;;11.41;100.00
44934;BME280;30667;43.614;1.442;2024-01-16T04:07:33;99295.38;;;11.41;100.00
44934;BME280;30667;43.614;1.442;2024-01-16T04:09:58;99296.97;;;11.42;100.00
44934;BME280;30667;43.614;1.442;2024-01-16T04:12:24;99287.03;;;11.37;100.00
44934;BME280;30667;43.614;1.442;2024-01-16T04:14:49;99286.34;;;11.32;100.00
44934;BME280;30667;43.614;1.442;2024-01-16T04:17:14;99277.41;;;11.31;100.00
44934;BME280;30667;43.614;1.442;2024-01-16T04:19:40;99262.88;;;11.27;100.00
44934;BME280;30667;43.614;1.442;2024-01-16T04:22:06;99263.78;;;11.22;100.00
44934;BME280;30667;43.614;1.442;2024-01-16T04:24:31;99269.69;;;11.24;100.00
44934;BME280;30667;43.614;1.442;2024-01-16T04:26:57;99272.19;;;11.21;100.00
44934;BME280;30667;43.614;1.442;2024-01-16T04:29:22;99284.63;;;11.22;100.00
44934;BME280;30667;43.614;1.442;2024-01-16T04:31:48;99294.66;;;11.21;100.00
44934;BME280;30667;43.614;1.442;2024-01-16T04:34:13;99287.06;;;11.23;100.00
44934;BME280;30667;43.614;1.442;2024-01-16T04:36:38;99284.72;;;11.17;100.00
44934;BME280;30667;43.614;1.442;2024-01-16T04:39:04;99282.31;;;11.15;100.00
44934;BME280;30667;43.614;1.442;2024-01-16T04:41:29;99280.13;;;11.17;100.00
44934;BME280;30667;43.614;1.442;2024-01-16T04:43:55;99277.41;;;11.17;100.00
44934;BME280;30667;43.614;1.442;2024-01-16T04:46:20;99273.88;;;11.17;100.00
44934;BME280;30667;43.614;1.442;2024-01-16T04:48:46;99276.59;;;11.17;100.00
44934;BME280;30667;43.614;1.442;2024-01-16T04:51:11;99273.97;;;11.12;100.00
44934;BME280;30667;43.614;1.442;2024-01-16T04:53:36;99279.91;;;11.14;100.00
44934;BME280;30667;43.614;1.442;2024-01-16T04:56:02;99285.53;;;11.17;100.00
44934;BME280;30667;43.614;1.442;2024-01-16T04:58:27;99276.09;;;11.15;100.00
44934;BME280;30667;43.614;1.442;2024-01-16T05:00:53;99280.41;;;11.16;100.00
44934;BME280;30667;43.614;1.442;2024-01-16T05:03:18;99274.19;;;11.15;100.00
44934;BME280;30667;43.614;1.442;2024-01-16T05:05:44;99283.31;;;11.19;100.00
44934;BME280;30667;43.614;1.442;2024-01-16T05:08:09;99284.94;;;11.20;100.00
44934;BME280;30667;43.614;1.442;2024-01-16T05:10:34;99296.75;;;11.24;100.00
44934;BME280;30667;43.614;1.442;2024-01-16T05:13:00;99303.00;;;11.25;100.00
44934;BME280;30667;43.614;1.442;2024-01-16T05:15:25;99298.38;;;11.25;100.00
44934;BME280;30667;43.614;1.442;2024-01-16T05:17:51;99292.97;;;11.25;100.00
44934;BME280;30667;43.614;1.442;2024-01-16T05:20:16;99295.06;;;11.29;100.00
44934;BME280;30667;43.614;1.442;2024-01-16T05:22:42;99301.78;;;11.31;100.00
44934;BME280;30667;43.614;1.442;2024-01-16T05:25:07;99293.97;;;11.30;100.00
44934;BME280;30667;43.614;1.442;2024-01-16T05:27:34;99297.78;;;11.29;100.00
44934;BME280;30667;43.614;1.442;2024-01-16T05:29:59;99305.09;;;11.28;100.00
44934;BME280;30667;43.614;1.442;2024-01-16T05:32:25;99304.81;;;11.30;100.00
44934;BME280;30667;43.614;1.442;2024-01-16T05:34:51;99297.78;;;11.29;100.00
44934;BME280;30667;43.614;1.442;2024-01-16T05:37:17;99298.28;;;11.31;100.00
44934;BME280;30667;43.614;1.442;2024-01-16T05:39:42;99292.38;;;11.29;100.00
44934;BME280;30667;43.614;1.442;2024-01-16T05:42:09;99286.94;;;11.29;100.00
44934;BME280;30667;43.614;1.442;2024-01-16T05:44:34;99291.56;;;11.28;100.00
44934;BME280;30667;43.614;1.442;2024-01-16T05:46:59;99297.28;;;11.26;100.00
44934;BME280;30667;43.614;1.442;2024-01-16T05:49:25;99307.28;;;11.26;100.00
44934;BME280;30667;43.614;1.442;2024-01-16T05:51:50;99302.69;;;11.26;100.00
44934;BME280;30667;43.614;1.442;2024-01-16T05:54:16;99305.19;;;11.23;100.00
44934;BME280;30667;43.614;1.442;2024-01-16T05:56:41;99317.63;;;11.24;100.00
44934;BME280;30667;43.614;1.442;2024-01-16T05:59:06;99322.25;;;11.23;100.00
44934;BME280;30667;43.614;1.442;2024-01-16T06:01:32;99323.34;;;11.22;100.00
44934;BME280;30667;43.614;1.442;2024-01-16T06:03:58;99331.75;;;11.21;100.00
44934;BME280;30667;43.614;1.442;2024-01-16T06:06:23;99323.44;;;11.17;100.00
44934;BME280;30667;43.614;1.442;2024-01-16T06:08:49;99330.16;;;11.20;100.00
44934;BME280;30667;43.614;1.442;2024-01-16T06:11:14;99321.81;;;11.16;100.00
44934;BME280;30667;43.614;1.442;2024-01-16T06:13:39;99323.75;;;11.16;100.00
44934;BME280;30667;43.614;1.442;2024-01-16T06:16:08;99323.53;;;11.12;100.00
44934;BME280;30667;43.614;1.442;2024-01-16T06:18:34;99331.66;;;11.12;100.00
44934;BME280;30667;43.614;1.442;2024-01-16T06:21:00;99316.81;;;11.09;100.00
44934;BME280;30667;43.614;1.442;2024-01-16T06:23:25;99319.00;;;11.07;100.00
44934;BME280;30667;43.614;1.442;2024-01-16T06:25:51;99317.69;;;11.05;100.00
44934;BME280;30667;43.614;1.442;2024-01-16T06:28:16;99320.69;;;11.03;100.00
44934;BME280;30667;43.614;1.442;2024-01-16T06:30:42;99322.91;;;11.01;100.00
44934;BME280;30667;43.614;1.442;2024-01-16T06:33:07;99330.19;;;11.01;100.00
44934;BME280;30667;43.614;1.442;2024-01-16T06:35:32;99327.81;;;10.99;100.00
44934;BME280;30667;43.614;1.442;2024-01-16T06:37:58;99334.31;;;10.98;100.00
44934;BME280;30667;43.614;1.442;2024-01-16T06:40:23;99338.13;;;10.97;100.00
44934;BME280;30667;43.614;1.442;2024-01-16T06:42:49;99336.00;;;10.94;100.00
44934;BME280;30667;43.614;1.442;2024-01-16T06:45:14;99338.22;;;10.92;100.00
44934;BME280;30667;43.614;1.442;2024-01-16T06:47:41;99347.44;;;10.91;100.00
44934;BME280;30667;43.614;1.442;2024-01-16T06:50:07;99349.03;;;10.92;100.00
44934;BME280;30667;43.614;1.442;2024-01-16T06:52:33;99345.00;;;10.89;100.00
44934;BME280;30667;43.614;1.442;2024-01-16T06:54:58;99352.63;;;10.87;100.00
44934;BME280;30667;43.614;1.442;2024-01-16T06:57:24;99348.84;;;10.88;100.00
44934;BME280;30667;43.614;1.442;2024-01-16T06:59:49;99353.44;;;10.88;100.00
44934;BME280;30667;43.614;1.442;2024-01-16T07:02:17;99352.13;;;10.85;100.00
44934;BME280;30667;43.614;1.442;2024-01-16T07:04:43;99345.09;;;10.84;100.00
44934;BME280;30667;43.614;1.442;2024-01-16T07:07:08;99340.28;;;10.81;100.00
44934;BME280;30667;43.614;1.442;2024-01-16T07:09:34;99343.56;;;10.78;100.00
44934;BME280;30667;43.614;1.442;2024-01-16T07:11:59;99351.97;;;10.77;100.00
44934;BME280;30667;43.614;1.442;2024-01-16T07:14:24;99353.41;;;10.74;100.00
44934;BME280;30667;43.614;1.442;2024-01-16T07:16:50;99361.81;;;10.72;100.00
44934;BME280;30667;43.614;1.442;2024-01-16T07:19:16;99356.91;;;10.75;100.00
44934;BME280;30667;43.614;1.442;2024-01-16T07:21:41;99359.09;;;10.72;100.00
44934;BME280;30667;43.614;1.442;2024-01-16T07:24:07;99359.91;;;10.73;100.00
44934;BME280;30667;43.614;1.442;2024-01-16T07:31:51;99363.75;;;10.86;100.00
44934;BME280;30667;43.614;1.442;2024-01-16T07:34:18;99362.97;;;11.32;100.00
44934;BME280;30667;43.614;1.442;2024-01-16T07:36:47;99373.38;;;11.11;100.00
44934;BME280;30667;43.614;1.442;2024-01-16T07:39:12;99379.09;;;10.90;100.00
44934;BME280;30667;43.614;1.442;2024-01-16T07:41:39;99386.28;;;10.81;100.00
44934;BME280;30667;43.614;1.442;2024-01-16T07:44:04;99389.06;;;10.76;100.00
44934;BME280;30667;43.614;1.442;2024-01-16T07:46:30;99392.38;;;10.73;100.00
44934;BME280;30667;43.614;1.442;2024-01-16T07:48:55;99406.47;;;10.70;100.00
44934;BME280;30667;43.614;1.442;2024-01-16T07:51:20;99409.47;;;10.68;100.00
44934;BME280;30667;43.614;1.442;2024-01-16T07:53:46;99418.38;;;10.69;100.00
44934;BME280;30667;43.614;1.442;2024-01-16T07:56:11;99415.69;;;10.69;100.00
44934;BME280;30667;43.614;1.442;2024-01-16T07:58:37;99417.31;;;10.70;100.00
44934;BME280;30667;43.614;1.442;2024-01-16T08:01:03;99422.13;;;10.73;100.00
44934;BME280;30667;43.614;1.442;2024-01-16T08:03:28;99422.63;;;10.75;100.00
44934;BME280;30667;43.614;1.442;2024-01-16T08:05:53;99420.66;;;10.81;100.00
44934;BME280;30667;43.614;1.442;2024-01-16T08:08:19;99417.66;;;10.82;100.00
44934;BME280;30667;43.614;1.442;2024-01-16T08:10:44;99422.00;;;10.83;100.00
44934;BME280;30667;43.614;1.442;2024-01-16T08:13:10;99420.88;;;10.84;100.00
44934;BME280;30667;43.614;1.442;2024-01-16T08:15:36;99429.75;;;10.90;100.00
44934;BME280;30667;43.614;1.442;2024-01-16T08:18:02;99427.03;;;10.90;100.00
44934;BME280;30667;43.614;1.442;2024-01-16T08:20:27;99427.25;;;10.94;100.00
44934;BME280;30667;43.614;1.442;2024-01-16T08:22:53;99439.69;;;10.95;100.00
44934;BME280;30667;43.614;1.442;2024-01-16T08:25:18;99435.56;;;10.97;100.00
44934;BME280;30667;43.614;1.442;2024-01-16T08:27:44;99448.31;;;10.97;100.00
44934;BME280;30667;43.614;1.442;2024-01-16T08:30:09;99447.72;;;11.00;100.00
44934;BME280;30667;43.614;1.442;2024-01-16T08:32:36;99443.41;;;10.99;100.00
44934;BME280;30667;43.614;1.442;2024-01-16T08:35:02;99444.72;;;11.01;100.00
44934;BME280;30667;43.614;1.442;2024-01-16T08:37:28;99452.84;;;11.01;100.00
44934;BME280;30667;43.614;1.442;2024-01-16T08:39:53;99452.25;;;11.04;100.00
44934;BME280;30667;43.614;1.442;2024-01-16T08:42:20;99450.56;;;11.08;100.00
44934;BME280;30667;43.614;1.442;2024-01-16T08:44:45;99446.97;;;11.13;100.00
44934;BME280;30667;43.614;1.442;2024-01-16T08:47:10;99441.25;;;11.15;100.00
44934;BME280;30667;43.614;1.442;2024-01-16T08:49:36;99436.97;;;11.14;100.00
44934;BME280;30667;43.614;1.442;2024-01-16T08:52:03;99439.13;;;11.12;100.00
44934;BME280;30667;43.614;1.442;2024-01-16T08:54:29;99440.16;;;11.16;100.00
44934;BME280;30667;43.614;1.442;2024-01-16T08:56:55;99444.16;;;11.18;100.00
44934;BME280;30667;43.614;1.442;2024-01-16T08:59:20;99449.28;;;11.20;100.00
44934;BME280;30667;43.614;1.442;2024-01-16T09:01:45;99451.09;;;11.24;100.00
44934;BME280;30667;43.614;1.442;2024-01-16T09:04:11;99450.81;;;11.26;100.00
44934;BME280;30667;43.614;1.442;2024-01-16T09:06:37;99454.06;;;11.28;100.00
44934;BME280;30667;43.614;1.442;2024-01-16T09:09:02;99457.75;;;11.32;100.00
44934;BME280;30667;43.614;1.442;2024-01-16T09:11:30;99457.66;;;11.37;100.00
44934;BME280;30667;43.614;1.442;2024-01-16T09:13:56;99459.72;;;11.45;100.00
44934;BME280;30667;43.614;1.442;2024-01-16T09:16:21;99465.63;;;11.48;100.00
44934;BME280;30667;43.614;1.442;2024-01-16T09:18:46;99467.22;;;11.49;100.00
44934;BME280;30667;43.614;1.442;2024-01-16T09:21:13;99460.50;;;11.46;100.00
44934;BME280;30667;43.614;1.442;2024-01-16T09:23:38;99461.00;;;11.48;100.00
44934;BME280;30667;43.614;1.442;2024-01-16T09:26:03;99461.22;;;11.52;100.00
44934;BME280;30667;43.614;1.442;2024-01-16T09:28:29;99461.75;;;11.54;100.00
44934;BME280;30667;43.614;1.442;2024-01-16T09:30:54;99461.94;;;11.57;100.00
44934;BME280;30667;43.614;1.442;2024-01-16T09:33:22;99467.06;;;11.59;100.00
44934;BME280;30667;43.614;1.442;2024-01-16T09:35:48;99478.59;;;11.64;100.00
44934;BME280;30667;43.614;1.442;2024-01-16T09:38:13;99474.22;;;11.69;100.00
44934;BME280;30667;43.614;1.442;2024-01-16T09:40:39;99480.66;;;11.73;100.00
44934;BME280;30667;43.614;1.442;2024-01-16T09:43:05;99475.72;;;11.75;100.00
44934;BME280;30667;43.614;1.442;2024-01-16T09:45:37;99472.44;;;11.78;100.00
44934;BME280;30667;43.614;1.442;2024-01-16T09:48:03;99478.84;;;11.82;100.00
44934;BME280;30667;43.614;1.442;2024-01-16T09:50:29;99479.88;;;11.86;100.00
44934;BME280;30667;43.614;1.442;2024-01-16T09:52:55;99474.16;;;11.88;100.00
44934;BME280;30667;43.614;1.442;2024-01-16T09:55:20;99461.63;;;11.92;100.00
44934;BME280;30667;43.614;1.442;2024-01-16T09:57:51;99454.38;;;11.87;100.00
44934;BME280;30667;43.614;1.442;2024-01-16T10:00:17;99443.22;;;11.89;100.00
44934;BME280;30667;43.614;1.442;2024-01-16T10:02:42;99451.06;;;11.90;100.00
44934;BME280;30667;43.614;1.442;2024-01-16T10:05:09;99452.47;;;11.88;100.00
44934;BME280;30667;43.614;1.442;2024-01-16T10:07:38;99456.22;;;11.92;100.00
44934;BME280;30667;43.614;1.442;2024-01-16T10:10:05;99440.94;;;11.96;100.00
44934;BME280;30667;43.614;1.442;2024-01-16T10:12:32;99441.66;;;12.02;100.00
44934;BME280;30667;43.614;1.442;2024-01-16T10:14:58;99449.06;;;11.96;100.00
44934;BME280;30667;43.614;1.442;2024-01-16T10:17:38;99434.81;;;12.04;100.00
44934;BME280;30667;43.614;1.442;2024-01-16T10:20:04;99443.47;;;12.06;100.00
44934;BME280;30667;43.614;1.442;2024-01-16T10:22:30;99432.00;;;12.09;100.00
44934;BME280;30667;43.614;1.442;2024-01-16T10:25:12;99436.31;;;12.10;100.00
44934;BME280;30667;43.614;1.442;2024-01-16T10:27:42;99444.03;;;12.17;100.00
44934;BME280;30667;43.614;1.442;2024-01-16T10:30:08;99440.13;;;12.23;100.00
44934;BME280;30667;43.614;1.442;2024-01-16T10:32:38;99440.84;;;12.29;100.00
44934;BME280;30667;43.614;1.442;2024-01-16T10:37:47;99440.25;;;12.32;100.00
44934;BME280;30667;43.614;1.442;2024-01-16T10:40:17;99438.50;;;12.36;100.00
44934;BME280;30667;43.614;1.442;2024-01-16T10:42:44;99436.09;;;12.34;100.00
44934;BME280;30667;43.614;1.442;2024-01-16T10:45:16;99436.69;;;12.31;100.00
44934;BME280;30667;43.614;1.442;2024-01-16T10:47:44;99438.00;;;12.34;100.00
44934;BME280;30667;43.614;1.442;2024-01-16T10:50:09;99433.38;;;12.34;100.00
44934;BME280;30667;43.614;1.442;2024-01-16T10:52:35;99434.88;;;12.41;100.00
44934;BME280;30667;43.614;1.442;2024-01-16T10:55:03;99424.81;;;12.41;100.00
44934;BME280;30667;43.614;1.442;2024-01-16T10:57:33;99423.13;;;12.45;100.00
44934;BME280;30667;43.614;1.442;2024-01-16T11:00:05;99422.81;;;12.47;100.00
44934;BME280;30667;43.614;1.442;2024-01-16T11:02:54;99420.28;;;12.50;100.00
44934;BME280;30667;43.614;1.442;2024-01-16T11:05:24;99416.00;;;12.49;100.00
44934;BME280;30667;43.614;1.442;2024-01-16T11:07:54;99412.38;;;12.54;100.00
44934;BME280;30667;43.614;1.442;2024-01-16T11:10:20;99400.09;;;12.57;100.00
44934;BME280;30667;43.614;1.442;2024-01-16T11:12:46;99394.34;;;12.58;100.00
44934;BME280;30667;43.614;1.442;2024-01-16T11:15:13;99382.88;;;12.61;100.00
44934;BME280;30667;43.614;1.442;2024-01-16T11:17:40;99385.91;;;12.60;100.00
44934;BME280;30667;43.614;1.442;2024-01-16T11:20:09;99386.22;;;12.58;100.00
44934;BME280;30667;43.614;1.442;2024-01-16T11:22:39;99385.59;;;12.61;100.00
44934;BME280;30667;43.614;1.442;2024-01-16T11:25:12;99390.28;;;12.69;100.00
44934;BME280;30667;43.614;1.442;2024-01-16T11:27:40;99391.59;;;12.72;100.00
44934;BME280;30667;43.614;1.442;2024-01-16T11:30:07;99384.72;;;12.75;100.00
44934;BME280;30667;43.614;1.442;2024-01-16T11:32:37;99385.34;;;12.71;100.00
44934;BME280;30667;43.614;1.442;2024-01-16T11:35:04;99373.69;;;12.71;100.00
44934;BME280;30667;43.614;1.442;2024-01-16T11:37:30;99375.38;;;12.81;100.00
44934;BME280;30667;43.614;1.442;2024-01-16T11:40:20;99370.00;;;12.89;100.00
44934;BME280;30667;43.614;1.442;2024-01-16T11:42:49;99356.31;;;12.95;100.00
44934;BME280;30667;43.614;1.442;2024-01-16T11:48:14;99344.53;;;12.99;100.00
44934;BME280;30667;43.614;1.442;2024-01-16T11:50:40;99341.66;;;13.04;100.00
44934;BME280;30667;43.614;1.442;2024-01-16T11:53:06;99336.69;;;12.98;100.00
44934;BME280;30667;43.614;1.442;2024-01-16T12:00:47;99335.13;;;13.05;100.00
44934;BME280;30667;43.614;1.442;2024-01-16T12:03:18;99336.53;;;13.03;100.00
44934;BME280;30667;43.614;1.442;2024-01-16T12:05:55;99325.19;;;13.01;100.00
44934;BME280;30667;43.614;1.442;2024-01-16T12:08:21;99316.75;;;13.02;100.00
44934;BME280;30667;43.614;1.442;2024-01-16T12:10:47;99318.31;;;13.03;100.00
44934;BME280;30667;43.614;1.442;2024-01-16T12:13:13;99305.41;;;13.00;100.00
44934;BME280;30667;43.614;1.442;2024-01-16T12:15:39;99296.59;;;13.03;100.00
44934;BME280;30667;43.614;1.442;2024-01-16T12:18:04;99302.09;;;13.12;100.00
44934;BME280;30667;43.614;1.442;2024-01-16T12:20:31;99283.56;;;13.14;100.00
44934;BME280;30667;43.614;1.442;2024-01-16T12:23:01;99287.88;;;13.15;100.00
44934;BME280;30667;43.614;1.442;2024-01-16T12:25:28;99291.41;;;13.16;100.00
44934;BME280;30667;43.614;1.442;2024-01-16T12:28:07;99293.16;;;13.12;100.00
44934;BME280;30667;43.614;1.442;2024-01-16T12:30:33;99284.03;;;13.07;100.00
44934;BME280;30667;43.614;1.442;2024-01-16T12:35:28;99262.47;;;13.11;100.00
44934;BME280;30667;43.614;1.442;2024-01-16T12:38:06;99255.16;;;13.20;100.00
44934;BME280;30667;43.614;1.442;2024-01-16T12:40:35;99260.09;;;13.18;100.00
44934;BME280;30667;43.614;1.442;2024-01-16T12:43:05;99239.66;;;13.21;100.00
44934;BME280;30667;43.614;1.442;2024-01-16T12:45:31;99241.94;;;13.27;100.00
44934;BME280;30667;43.614;1.442;2024-01-16T12:47:58;99235.69;;;13.27;100.00
44934;BME280;30667;43.614;1.442;2024-01-16T12:50:26;99239.56;;;13.35;100.00
44934;BME280;30667;43.614;1.442;2024-01-16T12:53:01;99230.00;;;13.46;100.00
44934;BME280;30667;43.614;1.442;2024-01-16T12:55:27;99230.00;;;13.46;100.00
44934;BME280;30667;43.614;1.442;2024-01-16T12:58:21;99222.03;;;13.50;100.00
44934;BME280;30667;43.614;1.442;2024-01-16T13:00:50;99210.38;;;13.58;100.00
44934;BME280;30667;43.614;1.442;2024-01-16T13:03:16;99215.16;;;13.52;100.00
44934;BME280;30667;43.614;1.442;2024-01-16T13:05:43;99210.81;;;13.42;100.00
44934;BME280;30667;43.614;1.442;2024-01-16T13:08:09;99211.78;;;13.38;100.00
44934;BME280;30667;43.614;1.442;2024-01-16T13:10:34;99215.28;;;13.38;100.00
44934;BME280;30667;43.614;1.442;2024-01-16T13:13:17;99214.03;;;13.44;100.00
44934;BME280;30667;43.614;1.442;2024-01-16T13:15:44;99207.78;;;13.44;100.00
44934;BME280;30667;43.614;1.442;2024-01-16T13:18:23;99187.97;;;13.52;100.00
44934;BME280;30667;43.614;1.442;2024-01-16T13:20:51;99176.00;;;13.53;100.00
44934;BME280;30667;43.614;1.442;2024-01-16T13:23:17;99183.84;;;13.55;100.00
44934;BME280;30667;43.614;1.442;2024-01-16T13:25:45;99170.22;;;13.46;100.00
44934;BME280;30667;43.614;1.442;2024-01-16T13:28:20;99159.84;;;13.39;100.00
44934;BME280;30667;43.614;1.442;2024-01-16T13:30:47;99149.63;;;13.45;100.00
44934;BME280;30667;43.614;1.442;2024-01-16T13:33:13;99146.41;;;13.43;100.00